FAX1 TNCS-TFFJ
Flight info
| Callsign | FAX1 |
|---|---|
| Flight time | N/A |
| Altitude | 9000 |
| Route | PJM |
| Aircraft | PC12/L-SDFGRWY/S |
Departure
| Time | 2026-04-26 01:10 |
|---|---|
| Airport | Juancho E. Yrausquin Airport (TNCS) |
Arrival
| Time | N/A |
|---|---|
| Airport | St. Jean Airport (TFFJ) |
| Time | Latitude | Longitude | Altitude | Speed | Heading |
|---|---|---|---|---|---|
| 2026-04-26 01:06 | 17.64459 | -63.22064 | 112 ft | 0 kts | 0° |
| 2026-04-26 01:06 | 17.64475 | -63.22064 | 112 ft | 8 kts | 358° |
| 2026-04-26 01:07 | 17.64486 | -63.22061 | 112 ft | 0 kts | 20° |
| 2026-04-26 01:08 | 17.64519 | -63.22050 | 112 ft | 19 kts | 5° |
| 2026-04-26 01:08 | 17.64563 | -63.22139 | 112 ft | 17 kts | 294° |
| 2026-04-26 01:08 | 17.64600 | -63.22224 | 112 ft | 3 kts | 248° |
| 2026-04-26 01:08 | 17.64608 | -63.22229 | 112 ft | 2 kts | 67° |
| 2026-04-26 01:09 | 17.64598 | -63.22213 | 112 ft | 0 kts | 113° |
| 2026-04-26 01:09 | 17.64583 | -63.22179 | 112 ft | 24 kts | 115° |
| 2026-04-26 01:09 | 17.64443 | -63.21851 | 98 ft | 66 kts | 122° |
| 2026-04-26 01:10 | 17.64210 | -63.21377 | 0 ft | 44 kts | 109° |
| 2026-04-26 01:10 | 17.64189 | -63.21328 | 0 ft | 25 kts | 116° |
| 2026-04-26 01:10 | 17.62806 | -63.17690 | 997 ft | 107 kts | 304° |
| 2026-04-26 01:10 | 17.63259 | -63.18327 | 549 ft | 111 kts | 310° |
| 2026-04-26 01:11 | 17.63872 | -63.18654 | 438 ft | 87 kts | 3° |
| 2026-04-26 01:11 | 17.64349 | -63.18512 | 277 ft | 92 kts | 27° |
| 2026-04-26 01:11 | 17.64680 | -63.18303 | 276 ft | 81 kts | 47° |
| 2026-04-26 01:11 | 17.65031 | -63.17816 | 148 ft | 84 kts | 51° |
| 2026-04-26 01:12 | 17.65282 | -63.17517 | 143 ft | 81 kts | 50° |
| 2026-04-26 01:12 | 17.65607 | -63.17073 | 66 ft | 81 kts | 55° |
| 2026-04-26 01:12 | 17.65821 | -63.16752 | 6 ft | 80 kts | 59° |
| 2026-04-26 01:12 | 17.62729 | -63.17561 | 1070 ft | 104 kts | 302° |
| 2026-04-26 01:13 | 17.63158 | -63.18094 | 858 ft | 99 kts | 333° |
| 2026-04-26 01:13 | 17.63755 | -63.18159 | 827 ft | 86 kts | 20° |
| 2026-04-26 01:13 | 17.64261 | -63.17795 | 606 ft | 93 kts | 52° |
| 2026-04-26 01:13 | 17.64607 | -63.17230 | 455 ft | 92 kts | 57° |
| 2026-04-26 01:14 | 17.64934 | -63.16653 | 298 ft | 91 kts | 66° |
| 2026-04-26 01:14 | 17.65261 | -63.16083 | 125 ft | 92 kts | 53° |
| 2026-04-26 01:14 | 17.65645 | -63.15554 | 11 ft | 87 kts | 53° |
| 2026-04-26 01:14 | 17.65974 | -63.15063 | 36 ft | 76 kts | 57° |
| 2026-04-26 01:15 | 17.66049 | -63.14940 | 37 ft | 76 kts | 60° |
| 2026-04-26 01:15 | 17.66293 | -63.14440 | 1 ft | 71 kts | 65° |
| 2026-04-26 01:15 | 17.66471 | -63.14004 | 3 ft | 69 kts | 71° |
| 2026-04-26 01:15 | 17.66569 | -63.13678 | 2 ft | 70 kts | 77° |
| 2026-04-26 01:16 | 17.66630 | -63.13356 | 1 ft | 66 kts | 80° |